createdAt,value
2023-02-17T00:00:51.315Z,57.83
2023-02-17T00:01:53.194Z,58.21
2023-02-17T00:02:57.876Z,58.25
2023-02-17T00:04:01.397Z,57.51
2023-02-17T00:05:04.474Z,58.41
2023-02-17T00:06:07.704Z,57.74
2023-02-17T00:07:10.728Z,58.18
2023-02-17T00:08:12.589Z,58.07
2023-02-17T00:09:15.800Z,58.00
2023-02-17T00:10:17.887Z,57.79
2023-02-17T00:11:21.473Z,57.90
2023-02-17T00:12:23.384Z,58.66
2023-02-17T00:13:26.464Z,57.75
2023-02-17T00:14:28.367Z,58.00
2023-02-17T00:15:31.306Z,58.28
2023-02-17T00:16:33.376Z,57.91
2023-02-17T00:17:36.428Z,58.14
2023-02-17T00:18:38.453Z,58.13
2023-02-17T00:19:42.875Z,58.02
2023-02-17T00:20:44.733Z,58.17
2023-02-17T00:21:47.580Z,58.03
2023-02-17T00:22:50.400Z,57.95
2023-02-17T00:23:53.157Z,58.59
2023-02-17T00:24:56.022Z,58.61
2023-02-17T00:25:57.842Z,57.89
2023-02-17T00:27:00.809Z,58.29
2023-02-17T00:28:02.727Z,58.04
2023-02-17T00:29:05.625Z,58.33
2023-02-17T00:30:09.104Z,58.25
2023-02-17T00:31:15.740Z,58.17
2023-02-17T00:32:18.613Z,58.66
2023-02-17T00:33:20.492Z,58.47
2023-02-17T00:34:23.457Z,58.34
2023-02-17T00:35:26.881Z,58.35
2023-02-17T00:36:29.990Z,58.06
2023-02-17T00:37:35.375Z,58.45
2023-02-17T00:38:38.372Z,58.99
2023-02-17T00:39:40.346Z,58.51
2023-02-17T00:40:43.674Z,58.55
2023-02-17T00:41:45.593Z,58.95
2023-02-17T00:42:49.000Z,58.88
2023-02-17T00:43:50.874Z,58.53
2023-02-17T00:44:53.971Z,58.47
2023-02-17T00:45:56.314Z,58.51
2023-02-17T00:46:59.178Z,58.68
2023-02-17T00:48:01.142Z,58.28
2023-02-17T00:49:04.029Z,58.13
2023-02-17T00:50:07.324Z,58.28
2023-02-17T00:51:12.153Z,58.69
2023-02-17T00:52:14.982Z,57.87
2023-02-17T00:53:17.911Z,58.27
2023-02-17T00:54:21.457Z,57.96
2023-02-17T00:55:23.395Z,58.28
2023-02-17T00:56:26.302Z,58.01
2023-02-17T00:57:32.185Z,58.26
2023-02-17T00:58:35.259Z,57.37
2023-02-17T00:59:37.225Z,58.07
2023-02-17T01:00:40.074Z,57.70
2023-02-17T01:01:42.310Z,57.85
2023-02-17T01:02:45.686Z,57.50
2023-02-17T01:03:47.977Z,57.71
2023-02-17T01:04:50.984Z,57.35
2023-02-17T01:05:54.462Z,57.49
2023-02-17T01:06:58.700Z,57.40
2023-02-17T01:08:00.634Z,57.73
2023-02-17T01:09:04.231Z,57.29
2023-02-17T01:10:07.597Z,56.82
2023-02-17T01:11:18.284Z,56.97
2023-02-17T01:12:22.031Z,57.39
2023-02-17T01:13:24.912Z,57.44
2023-02-17T01:14:26.778Z,56.99
2023-02-17T01:15:32.895Z,57.43
2023-02-17T01:16:37.042Z,57.34
2023-02-17T01:17:39.886Z,57.14
2023-02-17T01:18:41.813Z,57.23
2023-02-17T01:19:44.701Z,57.19
2023-02-17T01:20:47.064Z,56.82
2023-02-17T01:21:50.330Z,57.37
2023-02-17T01:22:53.595Z,56.69
2023-02-17T01:23:59.117Z,56.94
2023-02-17T01:25:01.306Z,56.54
2023-02-17T01:26:04.941Z,56.88
2023-02-17T01:27:07.168Z,58.20
2023-02-17T01:28:12.386Z,56.77
2023-02-17T01:29:15.223Z,56.32
2023-02-17T01:30:20.198Z,57.21
2023-02-17T01:31:23.700Z,57.25
2023-02-17T01:32:26.613Z,56.80
2023-02-17T01:33:29.702Z,56.58
2023-02-17T01:34:32.631Z,56.54
2023-02-17T01:35:34.857Z,56.50
2023-02-17T01:36:37.778Z,55.98
2023-02-17T01:37:39.696Z,56.79
2023-02-17T01:38:44.284Z,56.50
2023-02-17T01:39:46.274Z,56.29
2023-02-17T01:40:49.899Z,56.68
2023-02-17T01:41:51.844Z,56.68
2023-02-17T01:42:56.241Z,56.48
2023-02-17T01:44:11.312Z,56.87
2023-02-17T01:45:47.958Z,56.47
2023-02-17T01:46:51.464Z,57.02
2023-02-17T01:47:58.532Z,57.17
2023-02-17T01:49:04.655Z,56.76
2023-02-17T01:50:09.484Z,56.97
2023-02-17T01:51:16.832Z,56.81
2023-02-17T01:52:24.501Z,56.75
2023-02-17T01:53:31.893Z,56.66
2023-02-17T01:54:42.267Z,57.14
2023-02-17T01:55:45.944Z,56.42
2023-02-17T01:56:50.177Z,56.57
2023-02-17T01:57:54.293Z,56.72
2023-02-17T01:59:03.045Z,57.47
2023-02-17T02:00:07.770Z,56.32
2023-02-17T02:01:15.137Z,56.56
2023-02-17T02:02:17.947Z,56.69
2023-02-17T02:03:21.030Z,56.86
2023-02-17T02:04:25.978Z,57.08
2023-02-17T02:05:29.489Z,56.96
2023-02-17T02:06:34.794Z,56.67
2023-02-17T02:07:41.375Z,56.72
2023-02-17T02:08:51.836Z,56.36
2023-02-17T02:09:57.973Z,56.46
2023-02-17T02:10:59.910Z,57.13
2023-02-17T02:12:04.390Z,56.45
2023-02-17T02:13:07.774Z,56.54
2023-02-17T02:14:13.988Z,56.30
2023-02-17T02:15:20.124Z,57.45
2023-02-17T02:16:28.389Z,56.49
2023-02-17T02:17:37.872Z,56.33
2023-02-17T02:18:55.626Z,56.58
2023-02-17T02:20:48.925Z,56.58
2023-02-17T02:22:25.540Z,57.22
2023-02-17T02:23:56.328Z,56.19
2023-02-17T02:25:13.655Z,56.40
2023-02-17T02:27:12.038Z,56.79
2023-02-17T02:28:28.027Z,56.98
2023-02-17T02:29:58.127Z,57.33
2023-02-17T02:31:18.775Z,57.89
2023-02-17T02:32:44.989Z,57.12
2023-02-17T02:33:53.383Z,57.68
2023-02-17T02:35:01.529Z,57.18
2023-02-17T02:36:13.837Z,58.24
2023-02-17T02:37:20.962Z,57.50
2023-02-17T02:38:29.172Z,57.79
2023-02-17T02:39:38.076Z,57.39
2023-02-17T02:40:45.805Z,57.66
2023-02-17T02:41:53.340Z,57.42
2023-02-17T02:42:58.076Z,57.64
2023-02-17T02:44:01.132Z,57.19
2023-02-17T02:45:05.796Z,57.54
2023-02-17T02:46:09.860Z,57.49
2023-02-17T02:47:46.221Z,57.56
2023-02-17T02:48:53.209Z,57.34
2023-02-17T02:49:55.371Z,57.33
2023-02-17T02:51:25.479Z,57.18
2023-02-17T02:52:39.029Z,57.83
2023-02-17T02:54:01.261Z,57.34
2023-02-17T02:55:11.684Z,58.13
2023-02-17T02:56:27.431Z,58.30
2023-02-17T02:57:40.030Z,57.89
2023-02-17T02:58:50.722Z,58.60
2023-02-17T03:00:08.126Z,58.25
2023-02-17T03:01:22.003Z,58.15
2023-02-17T03:02:31.000Z,57.77
2023-02-17T03:03:42.868Z,58.49
2023-02-17T03:04:51.674Z,58.08
2023-02-17T03:06:00.896Z,57.64
2023-02-17T03:07:11.490Z,57.99
2023-02-17T03:08:18.758Z,57.98
2023-02-17T03:09:23.202Z,58.88
2023-02-17T03:10:26.592Z,58.08
2023-02-17T03:11:32.357Z,57.71
2023-02-17T03:12:38.192Z,57.92
2023-02-17T03:13:41.108Z,57.48
2023-02-17T03:14:48.772Z,57.97
2023-02-17T03:15:51.837Z,58.24
2023-02-17T03:16:55.394Z,57.57
2023-02-17T03:18:00.169Z,57.68
2023-02-17T03:19:05.075Z,57.45
2023-02-17T03:20:08.538Z,57.32
2023-02-17T03:21:16.152Z,57.62
2023-02-17T03:22:22.847Z,57.50
2023-02-17T03:23:25.882Z,57.55
2023-02-17T03:24:28.144Z,57.74
2023-02-17T03:25:30.967Z,57.06
2023-02-17T03:26:32.983Z,57.32
2023-02-17T03:27:36.613Z,57.14
2023-02-17T03:28:38.894Z,57.47
2023-02-17T03:29:42.193Z,57.23
2023-02-17T03:30:44.259Z,57.77
2023-02-17T03:31:47.320Z,57.44
2023-02-17T03:32:49.553Z,57.58
2023-02-17T03:33:52.445Z,57.68
2023-02-17T03:34:55.795Z,57.12
2023-02-17T03:36:00.027Z,57.58
2023-02-17T03:37:01.885Z,56.91
2023-02-17T03:38:05.142Z,57.58
2023-02-17T03:39:07.244Z,57.33
2023-02-17T03:40:10.904Z,57.39
2023-02-17T03:41:12.791Z,56.98
2023-02-17T03:42:15.680Z,57.34
2023-02-17T03:43:18.164Z,57.30
2023-02-17T03:44:21.163Z,57.10
2023-02-17T03:45:23.066Z,57.32
2023-02-17T03:46:25.951Z,57.75
2023-02-17T03:47:28.067Z,56.92
2023-02-17T03:48:31.501Z,56.96
2023-02-17T03:49:33.394Z,57.42
2023-02-17T03:50:37.684Z,57.02
2023-02-17T03:51:39.645Z,56.82
2023-02-17T03:52:42.526Z,56.73
2023-02-17T03:53:45.291Z,56.90
2023-02-17T03:54:48.175Z,56.90
2023-02-17T03:55:50.060Z,56.89
2023-02-17T03:56:52.908Z,56.84
2023-02-17T03:57:54.787Z,57.00
2023-02-17T03:58:57.600Z,57.14
2023-02-17T03:59:59.803Z,56.98
2023-02-17T04:01:02.970Z,56.78
2023-02-17T04:02:05.021Z,57.35
2023-02-17T04:03:07.982Z,57.23
2023-02-17T04:04:10.107Z,57.10
2023-02-17T04:05:13.045Z,57.07
2023-02-17T04:06:16.319Z,57.18
2023-02-17T04:07:19.155Z,57.18
2023-02-17T04:08:22.335Z,57.31
2023-02-17T04:09:24.182Z,56.89
2023-02-17T04:10:27.398Z,57.84
2023-02-17T04:11:29.567Z,57.40
2023-02-17T04:12:32.403Z,56.90
2023-02-17T04:13:34.764Z,56.47
2023-02-17T04:14:37.674Z,56.98
2023-02-17T04:15:39.580Z,57.05
2023-02-17T04:16:42.663Z,57.19
2023-02-17T04:17:44.767Z,57.40
2023-02-17T04:18:47.615Z,56.70
2023-02-17T04:19:49.520Z,56.85
2023-02-17T04:20:52.793Z,56.63
2023-02-17T04:21:56.055Z,56.81
2023-02-17T04:22:58.943Z,57.03
2023-02-17T04:24:01.459Z,56.48
2023-02-17T04:25:04.348Z,56.99
2023-02-17T04:26:07.941Z,56.32
2023-02-17T04:27:11.037Z,57.57
2023-02-17T04:28:14.621Z,57.25
2023-02-17T04:29:17.463Z,57.17
2023-02-17T04:30:19.524Z,56.68
2023-02-17T04:31:22.975Z,57.26
2023-02-17T04:32:24.884Z,56.57
2023-02-17T04:33:27.762Z,56.94
2023-02-17T04:34:30.569Z,56.75
2023-02-17T04:35:32.699Z,56.51
2023-02-17T04:36:35.649Z,56.67
2023-02-17T04:37:38.922Z,56.23
2023-02-17T04:38:41.839Z,56.91
2023-02-17T04:39:43.884Z,56.88
2023-02-17T04:40:46.742Z,56.62
2023-02-17T04:41:49.752Z,57.08
2023-02-17T04:42:51.641Z,56.49
2023-02-17T04:43:54.583Z,56.23
2023-02-17T04:44:56.480Z,56.39
2023-02-17T04:46:00.166Z,56.08
2023-02-17T04:47:02.064Z,56.22
2023-02-17T04:48:05.484Z,56.10
2023-02-17T04:49:07.360Z,56.94
2023-02-17T04:50:12.929Z,56.46
2023-02-17T04:51:14.919Z,55.94
2023-02-17T04:52:17.725Z,56.43
2023-02-17T04:53:21.088Z,55.58
2023-02-17T04:54:23.943Z,56.86
2023-02-17T04:55:25.976Z,56.37
2023-02-17T04:56:28.826Z,56.24
2023-02-17T04:57:30.699Z,55.94
2023-02-17T04:58:34.005Z,55.91
2023-02-17T04:59:35.985Z,56.09
2023-02-17T05:00:38.964Z,56.46
2023-02-17T05:01:40.847Z,56.10
2023-02-17T05:02:43.751Z,55.79
2023-02-17T05:03:46.774Z,56.67
2023-02-17T05:04:48.730Z,56.06
2023-02-17T05:05:51.674Z,56.36
2023-02-17T05:06:54.179Z,56.24
2023-02-17T05:07:57.084Z,56.35
2023-02-17T05:09:00.328Z,55.93
2023-02-17T05:10:03.195Z,56.49
2023-02-17T05:11:05.358Z,56.20
2023-02-17T05:12:08.771Z,56.30
2023-02-17T05:13:10.761Z,56.14
2023-02-17T05:14:13.734Z,56.33
2023-02-17T05:15:15.645Z,55.82
2023-02-17T05:16:18.611Z,56.33
2023-02-17T05:17:20.545Z,56.33
2023-02-17T05:18:23.418Z,56.39
2023-02-17T05:19:25.405Z,55.97
2023-02-17T05:20:28.362Z,57.15
2023-02-17T05:21:30.224Z,56.17
2023-02-17T05:22:33.419Z,56.69
2023-02-17T05:23:41.063Z,56.72
2023-02-17T05:24:45.305Z,57.09
2023-02-17T05:25:47.223Z,57.26
2023-02-17T05:26:50.065Z,57.58
2023-02-17T05:27:51.976Z,56.80
2023-02-17T05:28:54.923Z,57.22
2023-02-17T05:29:56.891Z,57.15
2023-02-17T05:30:59.868Z,56.92
2023-02-17T05:32:01.850Z,57.32
2023-02-17T05:33:05.029Z,56.90
2023-02-17T05:34:06.968Z,57.50
2023-02-17T05:35:10.132Z,56.90
2023-02-17T05:36:12.789Z,57.31
2023-02-17T05:37:15.648Z,57.07
2023-02-17T05:38:18.582Z,57.30
2023-02-17T05:39:20.472Z,56.81
2023-02-17T05:40:24.709Z,57.11
2023-02-17T05:41:26.638Z,57.26
2023-02-17T05:42:29.531Z,57.47
2023-02-17T05:43:31.875Z,57.09
2023-02-17T05:44:34.745Z,56.84
2023-02-17T05:45:36.683Z,57.60
2023-02-17T05:46:39.627Z,57.20
2023-02-17T05:47:41.581Z,57.48
2023-02-17T05:48:45.954Z,57.71
2023-02-17T05:49:47.856Z,57.75
2023-02-17T05:50:50.696Z,57.68
2023-02-17T05:51:52.666Z,57.87
2023-02-17T05:52:55.524Z,58.15
2023-02-17T05:53:57.524Z,58.57
2023-02-17T05:55:00.386Z,58.57
2023-02-17T05:56:04.281Z,58.42
2023-02-17T05:57:07.432Z,58.34
2023-02-17T05:58:09.705Z,58.59
2023-02-17T05:59:12.580Z,58.90
2023-02-17T06:00:15.639Z,59.07
2023-02-17T06:01:18.578Z,59.52
2023-02-17T06:02:21.167Z,59.06
2023-02-17T06:03:24.074Z,58.70
2023-02-17T06:04:25.992Z,59.03
2023-02-17T06:05:29.027Z,59.47
2023-02-17T06:06:30.973Z,58.66
2023-02-17T06:07:33.904Z,58.67
2023-02-17T06:08:36.061Z,59.23
2023-02-17T06:09:38.903Z,59.01
2023-02-17T06:10:42.095Z,58.71
2023-02-17T06:11:46.307Z,59.46
2023-02-17T06:12:48.224Z,60.29
2023-02-17T06:13:51.129Z,60.30
2023-02-17T06:14:53.039Z,61.04
2023-02-17T06:15:55.998Z,60.84
2023-02-17T06:17:00.681Z,60.74
2023-02-17T06:18:04.145Z,60.77
2023-02-17T06:19:06.048Z,61.41
2023-02-17T06:20:11.103Z,62.17
2023-02-17T06:21:13.961Z,61.62
2023-02-17T06:22:18.345Z,62.17
2023-02-17T06:23:21.410Z,62.16
2023-02-17T06:24:23.458Z,62.53
2023-02-17T06:25:26.354Z,62.62
2023-02-17T06:26:28.298Z,66.66
2023-02-17T06:27:32.738Z,63.80
2023-02-17T06:28:35.198Z,63.62
2023-02-17T06:29:38.194Z,62.56
2023-02-17T06:30:40.114Z,62.09
2023-02-17T06:31:43.212Z,61.95
2023-02-17T06:32:45.145Z,62.91
2023-02-17T06:33:48.567Z,62.08
2023-02-17T06:34:50.505Z,62.14
2023-02-17T06:35:53.713Z,62.72
2023-02-17T06:36:56.684Z,62.31
2023-02-17T06:37:59.682Z,62.04
2023-02-17T06:39:01.562Z,62.58
2023-02-17T06:40:04.747Z,62.05
2023-02-17T06:41:06.674Z,61.75
2023-02-17T06:42:09.578Z,61.88
2023-02-17T06:43:12.912Z,62.41
2023-02-17T06:44:15.792Z,62.44
2023-02-17T06:45:18.201Z,61.83
2023-02-17T06:46:21.023Z,61.64
2023-02-17T06:47:22.925Z,62.30
2023-02-17T06:48:25.863Z,62.48
2023-02-17T06:49:27.849Z,62.09
2023-02-17T06:50:30.890Z,62.18
2023-02-17T06:51:32.819Z,61.95
2023-02-17T06:52:36.148Z,61.75
2023-02-17T06:53:38.964Z,61.97
2023-02-17T06:54:41.829Z,62.79
2023-02-17T06:55:45.201Z,62.17
2023-02-17T06:56:48.121Z,62.02
2023-02-17T06:57:49.984Z,62.69
2023-02-17T06:58:54.228Z,62.50
2023-02-17T06:59:56.240Z,62.08
2023-02-17T07:00:59.242Z,62.66
2023-02-17T07:02:02.735Z,62.39
2023-02-17T07:03:06.177Z,62.25
2023-02-17T07:04:08.212Z,61.95
2023-02-17T07:05:11.218Z,62.32
2023-02-17T07:06:14.153Z,62.82
2023-02-17T07:07:16.008Z,62.94
2023-02-17T07:08:18.904Z,62.65
2023-02-17T07:09:20.778Z,62.71
2023-02-17T07:10:23.701Z,63.01
2023-02-17T07:11:27.234Z,62.54
2023-02-17T07:12:30.692Z,62.68
2023-02-17T07:13:32.725Z,62.69
2023-02-17T07:14:37.081Z,63.65
2023-02-17T07:15:39.005Z,63.63
2023-02-17T07:16:41.837Z,63.37
2023-02-17T07:17:43.724Z,62.83
2023-02-17T07:18:46.601Z,63.52
2023-02-17T07:19:48.521Z,63.15
2023-02-17T07:20:51.389Z,63.66
2023-02-17T07:21:53.276Z,64.02
2023-02-17T07:22:56.162Z,63.35
2023-02-17T07:23:58.062Z,63.85
2023-02-17T07:25:00.907Z,63.37
2023-02-17T07:26:03.383Z,64.35
2023-02-17T07:27:08.112Z,63.66
2023-02-17T07:28:11.582Z,63.78
2023-02-17T07:29:14.499Z,63.28
2023-02-17T07:30:18.656Z,64.13
2023-02-17T07:31:21.648Z,64.16
2023-02-17T07:32:23.685Z,64.06
2023-02-17T07:33:26.482Z,63.95
2023-02-17T07:34:29.336Z,64.21
2023-02-17T07:35:32.456Z,64.24
2023-02-17T07:36:34.854Z,64.62
2023-02-17T07:37:37.739Z,64.39
2023-02-17T07:38:40.186Z,63.94
2023-02-17T07:39:43.060Z,63.75
2023-02-17T07:40:44.954Z,64.36
2023-02-17T07:41:47.879Z,63.87
2023-02-17T07:42:54.514Z,64.16
2023-02-17T07:43:58.570Z,63.84
2023-02-17T07:45:01.538Z,64.09
2023-02-17T07:46:07.244Z,64.38
2023-02-17T07:47:09.657Z,64.05
2023-02-17T07:48:12.537Z,64.32
2023-02-17T07:49:15.474Z,64.63
2023-02-17T07:50:18.559Z,64.23
2023-02-17T07:51:22.426Z,64.10
2023-02-17T07:52:25.290Z,64.30
2023-02-17T07:53:27.167Z,63.74
2023-02-17T07:54:30.013Z,63.88
2023-02-17T07:55:32.761Z,64.75
2023-02-17T07:56:35.706Z,65.12
2023-02-17T07:57:37.594Z,64.84
2023-02-17T07:58:42.356Z,65.54
2023-02-17T07:59:46.942Z,64.93
2023-02-17T08:00:49.811Z,65.21
2023-02-17T08:01:53.179Z,65.84
2023-02-17T08:02:56.066Z,65.61
2023-02-17T08:03:58.024Z,65.00
2023-02-17T08:05:00.884Z,64.86
2023-02-17T08:06:03.370Z,65.12
2023-02-17T08:07:06.571Z,65.48
2023-02-17T08:08:27.252Z,65.06
2023-02-17T08:09:47.570Z,65.16
2023-02-17T08:11:08.298Z,65.50
2023-02-17T08:12:34.586Z,66.01
2023-02-17T08:13:37.577Z,65.32
2023-02-17T08:14:39.481Z,65.47
2023-02-17T08:15:42.530Z,65.55
2023-02-17T08:16:44.564Z,64.91
2023-02-17T08:17:51.050Z,64.84
2023-02-17T08:18:53.648Z,65.08
2023-02-17T08:19:56.766Z,65.02
2023-02-17T08:20:59.750Z,65.10
2023-02-17T08:22:01.668Z,64.55
2023-02-17T08:23:04.688Z,64.84
2023-02-17T08:24:06.934Z,64.77
2023-02-17T08:25:10.068Z,65.04
2023-02-17T08:26:12.929Z,64.23
2023-02-17T08:27:16.887Z,64.17
2023-02-17T08:28:18.980Z,64.46
2023-02-17T08:29:21.936Z,64.88
2023-02-17T08:30:24.896Z,64.77
2023-02-17T08:31:29.505Z,64.53
2023-02-17T08:32:32.475Z,64.20
2023-02-17T08:33:36.866Z,64.79
2023-02-17T08:34:38.760Z,64.90
2023-02-17T08:35:43.627Z,64.11
2023-02-17T08:36:46.675Z,64.40
2023-02-17T08:37:49.930Z,64.35
2023-02-17T08:38:52.191Z,64.64
2023-02-17T08:39:55.041Z,64.70
2023-02-17T08:40:56.923Z,64.74
2023-02-17T08:41:59.836Z,64.44
2023-02-17T08:43:03.512Z,64.16
2023-02-17T08:44:09.499Z,63.99
2023-02-17T08:45:14.725Z,63.88
2023-02-17T08:46:18.029Z,64.47
2023-02-17T08:47:20.952Z,64.26
2023-02-17T08:48:23.779Z,64.61
2023-02-17T08:49:29.964Z,63.91
2023-02-17T08:50:34.269Z,64.39
2023-02-17T08:51:36.923Z,64.53
2023-02-17T08:52:39.748Z,65.30
2023-02-17T08:53:43.177Z,65.69
2023-02-17T08:54:47.298Z,65.49
2023-02-17T08:55:49.965Z,64.96
2023-02-17T08:56:53.006Z,65.43
2023-02-17T08:57:54.962Z,65.17
2023-02-17T08:58:58.068Z,65.84
2023-02-17T09:00:00.361Z,65.68
2023-02-17T09:01:04.364Z,66.36
2023-02-17T09:02:08.270Z,67.09
2023-02-17T09:03:10.257Z,66.37
2023-02-17T09:04:14.936Z,66.83
2023-02-17T09:05:18.865Z,66.24
2023-02-17T09:06:22.370Z,66.84
2023-02-17T09:07:25.318Z,67.26
2023-02-17T09:08:27.184Z,67.61
2023-02-17T09:09:30.134Z,68.43
2023-02-17T09:10:32.252Z,68.42
2023-02-17T09:11:35.148Z,68.40
2023-02-17T09:12:38.236Z,68.01
2023-02-17T09:13:40.190Z,67.94
2023-02-17T09:14:43.111Z,68.29
2023-02-17T09:15:46.586Z,68.10
2023-02-17T09:16:49.499Z,68.15
2023-02-17T09:17:52.405Z,68.51
2023-02-17T09:18:54.898Z,68.30
2023-02-17T09:19:57.749Z,68.83
2023-02-17T09:21:06.492Z,68.77
2023-02-17T09:22:12.067Z,68.57
2023-02-17T09:23:18.558Z,68.31
2023-02-17T09:24:20.538Z,68.09
2023-02-17T09:25:23.601Z,67.66
2023-02-17T09:26:25.518Z,68.09
2023-02-17T09:27:28.512Z,68.20
2023-02-17T09:28:30.487Z,67.91
2023-02-17T09:29:33.529Z,68.33
2023-02-17T09:30:36.590Z,67.28
2023-02-17T09:31:39.784Z,68.12
2023-02-17T09:32:41.842Z,67.59
2023-02-17T09:33:45.543Z,67.23
2023-02-17T09:34:51.563Z,68.19
2023-02-17T09:35:54.536Z,67.26
2023-02-17T09:36:58.975Z,67.00
2023-02-17T09:38:02.138Z,66.98
2023-02-17T09:39:05.790Z,67.56
2023-02-17T09:40:09.297Z,67.06
2023-02-17T09:41:17.790Z,67.61
2023-02-17T09:42:24.179Z,67.96
2023-02-17T09:43:30.361Z,67.75
2023-02-17T09:44:42.657Z,66.94
2023-02-17T09:45:50.298Z,67.44
2023-02-17T09:47:02.684Z,66.91
2023-02-17T09:48:09.823Z,67.15
2023-02-17T09:49:16.978Z,67.53
2023-02-17T09:50:24.634Z,67.52
2023-02-17T09:51:34.952Z,67.23
2023-02-17T09:52:45.417Z,67.17
2023-02-17T09:53:53.242Z,67.65
2023-02-17T09:55:04.720Z,66.94
2023-02-17T09:56:13.167Z,67.14
2023-02-17T09:57:21.722Z,67.30
2023-02-17T09:58:30.011Z,67.09
2023-02-17T09:59:38.379Z,66.92
2023-02-17T10:00:45.698Z,66.99
2023-02-17T10:01:51.948Z,66.12
2023-02-17T10:03:00.869Z,66.11
2023-02-17T10:04:09.188Z,66.99
2023-02-17T10:05:17.689Z,66.25
2023-02-17T10:06:25.946Z,66.13
2023-02-17T10:07:33.874Z,66.46
2023-02-17T10:08:44.729Z,66.40
2023-02-17T10:09:51.971Z,66.63
2023-02-17T10:11:00.590Z,65.95
2023-02-17T10:12:09.550Z,65.38
2023-02-17T10:13:15.168Z,66.43
2023-02-17T10:14:22.644Z,66.29
2023-02-17T10:15:28.785Z,65.90
2023-02-17T10:16:38.129Z,65.98
2023-02-17T10:17:44.426Z,66.46
2023-02-17T10:18:54.338Z,66.43
2023-02-17T10:20:03.928Z,65.53
2023-02-17T10:21:13.070Z,66.28
2023-02-17T10:22:19.720Z,66.30
2023-02-17T10:23:25.174Z,65.39
2023-02-17T10:24:28.908Z,65.33
2023-02-17T10:26:03.493Z,66.29
2023-02-17T10:27:25.907Z,65.60
2023-02-17T10:28:43.255Z,66.47
2023-02-17T10:29:58.568Z,66.22
2023-02-17T10:31:04.882Z,64.99
2023-02-17T10:32:22.236Z,64.22
2023-02-17T10:33:30.736Z,64.39
2023-02-17T10:34:36.356Z,63.79
2023-02-17T10:35:50.110Z,64.29
2023-02-17T10:37:00.323Z,64.12
2023-02-17T10:38:14.555Z,64.23
2023-02-17T10:39:33.211Z,63.04
2023-02-17T10:40:36.102Z,63.41
2023-02-17T10:41:41.320Z,62.75
2023-02-17T10:42:44.335Z,62.77
2023-02-17T10:43:48.382Z,63.22
2023-02-17T10:44:53.724Z,63.18
2023-02-17T10:45:58.067Z,62.99
2023-02-17T10:47:01.196Z,63.36
2023-02-17T10:48:07.970Z,63.45
2023-02-17T10:49:19.957Z,63.60
2023-02-17T10:50:24.746Z,63.36
2023-02-17T10:51:31.100Z,62.96
2023-02-17T10:52:41.363Z,63.02
2023-02-17T10:53:47.655Z,62.76
2023-02-17T10:54:59.836Z,63.16
2023-02-17T10:56:08.331Z,63.98
2023-02-17T10:57:13.417Z,63.76
2023-02-17T10:58:23.590Z,63.15
2023-02-17T10:59:29.934Z,62.43
2023-02-17T11:00:33.275Z,61.86
2023-02-17T11:01:37.646Z,62.89
2023-02-17T11:02:43.869Z,63.40
2023-02-17T11:03:46.730Z,62.91
2023-02-17T11:04:51.083Z,63.60
2023-02-17T11:05:56.871Z,63.91
2023-02-17T11:07:03.318Z,63.88
2023-02-17T11:08:08.949Z,63.38
2023-02-17T11:09:21.768Z,63.14
2023-02-17T11:10:29.931Z,62.97
2023-02-17T11:11:34.109Z,62.72
2023-02-17T11:12:42.379Z,62.63
2023-02-17T11:13:57.816Z,62.78
2023-02-17T11:15:04.619Z,63.32
2023-02-17T11:16:07.444Z,62.73
2023-02-17T11:17:17.728Z,63.64
2023-02-17T11:18:26.983Z,63.71
2023-02-17T11:19:33.949Z,63.69
2023-02-17T11:20:37.938Z,64.16
2023-02-17T11:21:44.263Z,63.83
2023-02-17T11:22:48.990Z,62.42
2023-02-17T11:23:56.128Z,62.48
2023-02-17T11:24:59.317Z,62.35
2023-02-17T11:26:10.866Z,62.94
2023-02-17T11:27:13.807Z,62.14
2023-02-17T11:28:24.960Z,62.66
2023-02-17T11:29:29.206Z,63.23
2023-02-17T11:30:33.887Z,62.85
2023-02-17T11:31:37.071Z,63.12
2023-02-17T11:32:40.137Z,62.82
2023-02-17T11:33:42.983Z,62.61
2023-02-17T11:34:45.959Z,62.40
2023-02-17T11:35:51.293Z,62.51
2023-02-17T11:37:02.992Z,62.46
2023-02-17T11:38:13.653Z,62.31
2023-02-17T11:39:21.606Z,62.43
2023-02-17T11:40:26.694Z,62.36
2023-02-17T11:41:40.242Z,63.30
2023-02-17T11:42:43.152Z,63.71
2023-02-17T11:43:54.262Z,63.78
2023-02-17T11:44:59.854Z,63.24
2023-02-17T11:46:17.975Z,62.77
2023-02-17T11:47:31.358Z,63.52
2023-02-17T11:49:21.969Z,63.16
2023-02-17T11:50:41.287Z,63.92
2023-02-17T11:51:56.584Z,63.40
2023-02-17T11:53:09.383Z,63.19
2023-02-17T11:54:22.276Z,63.82
2023-02-17T11:55:36.475Z,63.60
2023-02-17T11:56:42.017Z,64.21
2023-02-17T11:57:49.454Z,63.79
2023-02-17T11:59:09.376Z,63.92
2023-02-17T12:00:17.687Z,63.81
2023-02-17T12:01:38.282Z,63.91
2023-02-17T12:03:10.943Z,63.32
2023-02-17T12:04:35.286Z,64.05
2023-02-17T12:05:50.635Z,63.29
2023-02-17T12:07:07.700Z,63.42
2023-02-17T12:08:21.780Z,63.26
2023-02-17T12:09:31.082Z,63.71
2023-02-17T12:10:51.077Z,64.64
2023-02-17T12:12:02.605Z,63.24
2023-02-17T12:13:23.700Z,64.12
2023-02-17T12:14:42.749Z,64.42
2023-02-17T12:15:56.952Z,64.30
2023-02-17T12:17:13.322Z,64.57
2023-02-17T12:18:31.219Z,63.83
2023-02-17T12:19:43.108Z,65.12
2023-02-17T12:20:52.069Z,64.33
2023-02-17T12:22:03.797Z,64.38
2023-02-17T12:23:21.826Z,64.22
2023-02-17T12:24:39.903Z,63.95
2023-02-17T12:25:49.508Z,64.60
2023-02-17T12:27:04.263Z,63.78
2023-02-17T12:28:28.273Z,64.42
2023-02-17T12:29:48.795Z,64.15
2023-02-17T12:31:02.562Z,64.79
2023-02-17T12:32:26.148Z,65.17
2023-02-17T12:33:43.284Z,64.33
2023-02-17T12:34:53.025Z,64.80
2023-02-17T12:35:59.297Z,64.01
2023-02-17T12:37:01.753Z,64.79
2023-02-17T12:38:12.720Z,64.09
2023-02-17T12:39:19.459Z,65.19
2023-02-17T12:40:33.916Z,65.54
2023-02-17T12:41:41.256Z,65.11
2023-02-17T12:42:52.539Z,66.17
2023-02-17T12:43:59.593Z,64.81
2023-02-17T12:45:06.263Z,65.46
2023-02-17T12:46:13.014Z,65.84
2023-02-17T12:47:20.628Z,64.95
2023-02-17T12:48:27.097Z,65.67
2023-02-17T12:49:35.421Z,65.57
2023-02-17T12:50:40.296Z,64.98
2023-02-17T12:51:50.600Z,65.87
2023-02-17T12:52:57.167Z,65.45
2023-02-17T12:54:06.388Z,65.29
2023-02-17T12:55:19.849Z,64.98
2023-02-17T12:57:00.927Z,64.94
2023-02-17T12:58:08.228Z,65.94
2023-02-17T12:59:19.683Z,65.32
2023-02-17T13:00:26.263Z,65.77
2023-02-17T13:01:32.340Z,66.12
2023-02-17T13:02:35.452Z,65.39
2023-02-17T13:03:37.846Z,65.49
2023-02-17T13:04:42.793Z,65.54
2023-02-17T13:05:52.930Z,66.44
2023-02-17T13:07:14.084Z,67.05
2023-02-17T13:08:22.392Z,65.75
2023-02-17T13:09:30.569Z,66.22
2023-02-17T13:10:36.237Z,66.10
2023-02-17T13:11:38.114Z,66.60
2023-02-17T13:12:42.857Z,66.23
2023-02-17T13:13:47.133Z,66.21
2023-02-17T13:14:51.201Z,66.35
2023-02-17T13:16:03.773Z,66.10
2023-02-17T13:17:05.778Z,66.66
2023-02-17T13:18:13.954Z,66.85
2023-02-17T13:20:58.865Z,66.82
2023-02-17T13:22:02.338Z,66.97
2023-02-17T13:23:12.209Z,66.06
2023-02-17T13:24:17.376Z,67.23
2023-02-17T13:25:30.783Z,66.16
2023-02-17T13:26:35.369Z,66.74
2023-02-17T13:27:39.694Z,66.13
2023-02-17T13:28:43.499Z,67.18
2023-02-17T13:29:47.836Z,66.08
2023-02-17T13:30:52.321Z,66.49
2023-02-17T13:31:57.516Z,66.37
2023-02-17T13:33:04.534Z,65.78
2023-02-17T13:34:10.311Z,65.79
2023-02-17T13:35:32.098Z,65.96
2023-02-17T13:36:38.690Z,67.06
2023-02-17T13:37:44.688Z,66.82
2023-02-17T13:39:01.296Z,66.10
2023-02-17T13:40:25.768Z,66.81
2023-02-17T13:41:29.982Z,66.61
2023-02-17T13:42:41.602Z,66.29
2023-02-17T13:43:43.627Z,66.50
2023-02-17T13:44:50.259Z,65.94
2023-02-17T13:45:59.882Z,66.03
2023-02-17T13:47:07.285Z,67.11
2023-02-17T13:48:24.140Z,65.67
2023-02-17T13:49:28.385Z,65.75
2023-02-17T13:50:34.275Z,66.06
2023-02-17T13:51:37.559Z,66.30
2023-02-17T13:52:43.404Z,65.76
2023-02-17T13:53:51.809Z,66.11
2023-02-17T13:54:55.928Z,65.70
2023-02-17T13:56:01.242Z,65.39
2023-02-17T13:57:03.399Z,66.44
2023-02-17T13:58:06.200Z,66.73
2023-02-17T13:59:10.261Z,65.35
2023-02-17T14:00:22.845Z,66.63
2023-02-17T14:01:28.843Z,66.15
2023-02-17T14:02:36.282Z,65.27
2023-02-17T14:03:44.200Z,66.25
2023-02-17T14:04:46.258Z,65.60
2023-02-17T14:05:50.721Z,66.18
2023-02-17T14:06:56.261Z,66.69
2023-02-17T14:08:05.228Z,66.09
2023-02-17T14:09:14.917Z,66.11
2023-02-17T14:10:23.928Z,66.71